sensor_id;sensor_type;location;lat;lon;timestamp;temperature;humidity
16287;DHT22;8251;53.568;10.018;2023-06-26T00:01:15;26.30;66.80
16287;DHT22;8251;53.568;10.018;2023-06-26T00:03:42;26.30;66.80
16287;DHT22;8251;53.568;10.018;2023-06-26T00:06:09;26.30;66.80
16287;DHT22;8251;53.568;10.018;2023-06-26T00:08:36;26.30;66.90
16287;DHT22;8251;53.568;10.018;2023-06-26T00:11:03;26.30;67.00
16287;DHT22;8251;53.568;10.018;2023-06-26T00:13:33;26.30;67.10
16287;DHT22;8251;53.568;10.018;2023-06-26T00:16:00;26.30;67.10
16287;DHT22;8251;53.568;10.018;2023-06-26T00:18:30;26.30;67.40
16287;DHT22;8251;53.568;10.018;2023-06-26T00:20:57;26.30;67.30
16287;DHT22;8251;53.568;10.018;2023-06-26T00:23:24;26.30;67.50
16287;DHT22;8251;53.568;10.018;2023-06-26T00:25:55;26.30;67.50
16287;DHT22;8251;53.568;10.018;2023-06-26T00:28:22;26.20;67.60
16287;DHT22;8251;53.568;10.018;2023-06-26T00:30:52;26.20;67.60
16287;DHT22;8251;53.568;10.018;2023-06-26T00:33:19;26.20;67.80
16287;DHT22;8251;53.568;10.018;2023-06-26T00:35:48;26.20;67.80
16287;DHT22;8251;53.568;10.018;2023-06-26T00:38:17;26.20;67.50
16287;DHT22;8251;53.568;10.018;2023-06-26T00:40:46;26.20;67.40
16287;DHT22;8251;53.568;10.018;2023-06-26T00:43:15;26.20;67.30
16287;DHT22;8251;53.568;10.018;2023-06-26T00:45:47;26.20;68.10
16287;DHT22;8251;53.568;10.018;2023-06-26T00:48:17;26.10;67.20
16287;DHT22;8251;53.568;10.018;2023-06-26T00:50:51;26.10;67.30
16287;DHT22;8251;53.568;10.018;2023-06-26T00:53:18;26.10;67.30
16287;DHT22;8251;53.568;10.018;2023-06-26T00:55:45;26.10;67.50
16287;DHT22;8251;53.568;10.018;2023-06-26T00:58:12;26.10;67.40
16287;DHT22;8251;53.568;10.018;2023-06-26T01:00:40;26.00;67.40
16287;DHT22;8251;53.568;10.018;2023-06-26T01:03:11;26.00;67.50
16287;DHT22;8251;53.568;10.018;2023-06-26T01:05:38;26.00;67.50
16287;DHT22;8251;53.568;10.018;2023-06-26T01:08:09;26.00;67.70
16287;DHT22;8251;53.568;10.018;2023-06-26T01:10:36;26.00;67.60
16287;DHT22;8251;53.568;10.018;2023-06-26T01:13:03;26.00;67.60
16287;DHT22;8251;53.568;10.018;2023-06-26T01:15:30;26.00;67.90
16287;DHT22;8251;53.568;10.018;2023-06-26T01:18:00;25.90;67.90
16287;DHT22;8251;53.568;10.018;2023-06-26T01:20:36;25.90;68.00
16287;DHT22;8251;53.568;10.018;2023-06-26T01:23:14;25.90;68.10
16287;DHT22;8251;53.568;10.018;2023-06-26T01:25:56;25.90;68.20
16287;DHT22;8251;53.568;10.018;2023-06-26T01:28:31;25.90;68.40
16287;DHT22;8251;53.568;10.018;2023-06-26T01:31:01;25.90;69.30
16287;DHT22;8251;53.568;10.018;2023-06-26T01:33:29;25.90;68.40
16287;DHT22;8251;53.568;10.018;2023-06-26T01:35:56;25.80;68.40
16287;DHT22;8251;53.568;10.018;2023-06-26T01:38:23;25.80;68.60
16287;DHT22;8251;53.568;10.018;2023-06-26T01:40:52;25.80;68.50
16287;DHT22;8251;53.568;10.018;2023-06-26T01:43:25;25.80;68.60
16287;DHT22;8251;53.568;10.018;2023-06-26T01:45:59;25.70;68.50
16287;DHT22;8251;53.568;10.018;2023-06-26T01:48:30;25.70;68.80
16287;DHT22;8251;53.568;10.018;2023-06-26T01:51:01;25.60;68.90
16287;DHT22;8251;53.568;10.018;2023-06-26T01:53:36;25.60;69.20
16287;DHT22;8251;53.568;10.018;2023-06-26T01:56:13;25.50;69.40
16287;DHT22;8251;53.568;10.018;2023-06-26T01:58:46;25.50;69.50
16287;DHT22;8251;53.568;10.018;2023-06-26T02:01:15;25.50;69.70
16287;DHT22;8251;53.568;10.018;2023-06-26T02:03:48;25.50;69.90
16287;DHT22;8251;53.568;10.018;2023-06-26T02:06:15;25.40;69.90
16287;DHT22;8251;53.568;10.018;2023-06-26T02:08:42;25.40;70.00
16287;DHT22;8251;53.568;10.018;2023-06-26T02:11:09;25.40;70.20
16287;DHT22;8251;53.568;10.018;2023-06-26T02:13:37;25.40;70.30
16287;DHT22;8251;53.568;10.018;2023-06-26T02:16:04;25.40;70.40
16287;DHT22;8251;53.568;10.018;2023-06-26T02:18:33;25.40;70.40
16287;DHT22;8251;53.568;10.018;2023-06-26T02:21:02;25.30;70.30
16287;DHT22;8251;53.568;10.018;2023-06-26T02:23:35;25.30;70.50
16287;DHT22;8251;53.568;10.018;2023-06-26T02:26:02;25.30;70.40
16287;DHT22;8251;53.568;10.018;2023-06-26T02:28:29;25.30;70.70
16287;DHT22;8251;53.568;10.018;2023-06-26T02:31:00;25.30;70.70
16287;DHT22;8251;53.568;10.018;2023-06-26T02:33:27;25.30;70.70
16287;DHT22;8251;53.568;10.018;2023-06-26T02:35:57;25.30;70.60
16287;DHT22;8251;53.568;10.018;2023-06-26T02:38:24;25.30;70.70
16287;DHT22;8251;53.568;10.018;2023-06-26T02:40:50;25.30;70.70
16287;DHT22;8251;53.568;10.018;2023-06-26T02:43:17;25.30;71.30
16287;DHT22;8251;53.568;10.018;2023-06-26T02:45:47;25.30;70.30
16287;DHT22;8251;53.568;10.018;2023-06-26T02:48:14;25.30;70.10
16287;DHT22;8251;53.568;10.018;2023-06-26T02:50:43;25.20;70.10
16287;DHT22;8251;53.568;10.018;2023-06-26T02:53:13;25.20;70.10
16287;DHT22;8251;53.568;10.018;2023-06-26T02:55:42;25.20;70.10
16287;DHT22;8251;53.568;10.018;2023-06-26T02:58:13;25.20;70.10
16287;DHT22;8251;53.568;10.018;2023-06-26T03:00:39;25.20;70.40
16287;DHT22;8251;53.568;10.018;2023-06-26T03:03:07;25.10;70.20
16287;DHT22;8251;53.568;10.018;2023-06-26T03:05:33;25.10;70.20
16287;DHT22;8251;53.568;10.018;2023-06-26T03:08:02;25.10;70.30
16287;DHT22;8251;53.568;10.018;2023-06-26T03:10:31;25.10;70.30
16287;DHT22;8251;53.568;10.018;2023-06-26T03:12:58;25.10;70.40
16287;DHT22;8251;53.568;10.018;2023-06-26T03:15:25;25.10;70.20
16287;DHT22;8251;53.568;10.018;2023-06-26T03:17:55;25.10;70.20
16287;DHT22;8251;53.568;10.018;2023-06-26T03:20:22;25.10;70.40
16287;DHT22;8251;53.568;10.018;2023-06-26T03:22:49;25.00;70.50
16287;DHT22;8251;53.568;10.018;2023-06-26T03:25:16;25.00;70.60
16287;DHT22;8251;53.568;10.018;2023-06-26T03:27:47;25.00;70.60
16287;DHT22;8251;53.568;10.018;2023-06-26T03:30:15;25.00;70.60
16287;DHT22;8251;53.568;10.018;2023-06-26T03:32:42;25.00;70.60
16287;DHT22;8251;53.568;10.018;2023-06-26T03:35:12;25.00;70.30
16287;DHT22;8251;53.568;10.018;2023-06-26T03:37:39;25.00;70.30
16287;DHT22;8251;53.568;10.018;2023-06-26T03:40:07;25.00;70.40
16287;DHT22;8251;53.568;10.018;2023-06-26T03:42:35;25.00;70.40
16287;DHT22;8251;53.568;10.018;2023-06-26T03:45:06;25.00;70.50
16287;DHT22;8251;53.568;10.018;2023-06-26T03:47:33;25.00;70.60
16287;DHT22;8251;53.568;10.018;2023-06-26T03:50:01;25.00;70.70
16287;DHT22;8251;53.568;10.018;2023-06-26T03:52:28;25.00;70.60
16287;DHT22;8251;53.568;10.018;2023-06-26T03:54:59;25.00;70.40
16287;DHT22;8251;53.568;10.018;2023-06-26T03:57:26;25.00;70.30
16287;DHT22;8251;53.568;10.018;2023-06-26T03:59:53;25.00;70.40
16287;DHT22;8251;53.568;10.018;2023-06-26T04:02:21;24.90;70.50
16287;DHT22;8251;53.568;10.018;2023-06-26T04:04:48;24.90;70.70
16287;DHT22;8251;53.568;10.018;2023-06-26T04:07:15;24.90;70.60
16287;DHT22;8251;53.568;10.018;2023-06-26T04:09:45;24.90;70.80
16287;DHT22;8251;53.568;10.018;2023-06-26T04:12:12;24.90;70.70
16287;DHT22;8251;53.568;10.018;2023-06-26T04:14:39;24.90;70.50
16287;DHT22;8251;53.568;10.018;2023-06-26T04:17:06;24.90;70.70
16287;DHT22;8251;53.568;10.018;2023-06-26T04:19:34;24.90;70.90
16287;DHT22;8251;53.568;10.018;2023-06-26T04:22:05;24.90;70.70
16287;DHT22;8251;53.568;10.018;2023-06-26T04:24:39;25.00;70.80
16287;DHT22;8251;53.568;10.018;2023-06-26T04:27:06;25.00;70.80
16287;DHT22;8251;53.568;10.018;2023-06-26T04:29:33;25.00;70.80
16287;DHT22;8251;53.568;10.018;2023-06-26T04:32:00;25.00;70.60
16287;DHT22;8251;53.568;10.018;2023-06-26T04:34:27;25.00;71.00
16287;DHT22;8251;53.568;10.018;2023-06-26T04:36:59;25.10;71.10
16287;DHT22;8251;53.568;10.018;2023-06-26T04:39:30;25.10;71.00
16287;DHT22;8251;53.568;10.018;2023-06-26T04:41:57;25.10;70.80
16287;DHT22;8251;53.568;10.018;2023-06-26T04:44:24;25.10;70.80
16287;DHT22;8251;53.568;10.018;2023-06-26T04:46:51;25.10;70.60
16287;DHT22;8251;53.568;10.018;2023-06-26T04:49:21;25.20;70.80
16287;DHT22;8251;53.568;10.018;2023-06-26T04:51:49;25.20;70.80
16287;DHT22;8251;53.568;10.018;2023-06-26T04:54:17;25.20;71.00
16287;DHT22;8251;53.568;10.018;2023-06-26T04:56:44;25.20;70.60
16287;DHT22;8251;53.568;10.018;2023-06-26T04:59:13;25.20;70.30
16287;DHT22;8251;53.568;10.018;2023-06-26T05:01:43;25.20;70.20
16287;DHT22;8251;53.568;10.018;2023-06-26T05:04:15;25.20;70.50
16287;DHT22;8251;53.568;10.018;2023-06-26T05:06:44;25.20;70.80
16287;DHT22;8251;53.568;10.018;2023-06-26T05:09:26;25.20;70.80
16287;DHT22;8251;53.568;10.018;2023-06-26T05:11:53;25.30;70.70
16287;DHT22;8251;53.568;10.018;2023-06-26T05:14:20;25.30;70.30
16287;DHT22;8251;53.568;10.018;2023-06-26T05:16:47;25.30;70.10
16287;DHT22;8251;53.568;10.018;2023-06-26T05:19:18;25.30;70.10
16287;DHT22;8251;53.568;10.018;2023-06-26T05:21:46;25.30;70.10
16287;DHT22;8251;53.568;10.018;2023-06-26T05:24:15;25.40;70.10
16287;DHT22;8251;53.568;10.018;2023-06-26T05:26:45;25.40;70.00
16287;DHT22;8251;53.568;10.018;2023-06-26T05:29:12;25.40;70.00
16287;DHT22;8251;53.568;10.018;2023-06-26T05:31:41;25.40;69.80
16287;DHT22;8251;53.568;10.018;2023-06-26T05:34:11;25.50;69.90
16287;DHT22;8251;53.568;10.018;2023-06-26T05:36:39;25.50;69.50
16287;DHT22;8251;53.568;10.018;2023-06-26T05:39:08;25.60;69.40
16287;DHT22;8251;53.568;10.018;2023-06-26T05:41:36;25.60;69.30
16287;DHT22;8251;53.568;10.018;2023-06-26T05:44:04;25.60;69.10
16287;DHT22;8251;53.568;10.018;2023-06-26T05:46:34;25.70;69.10
16287;DHT22;8251;53.568;10.018;2023-06-26T05:49:01;25.70;68.60
16287;DHT22;8251;53.568;10.018;2023-06-26T05:51:29;25.70;68.70
16287;DHT22;8251;53.568;10.018;2023-06-26T05:53:59;25.70;68.90
16287;DHT22;8251;53.568;10.018;2023-06-26T05:56:26;25.80;69.00
16287;DHT22;8251;53.568;10.018;2023-06-26T05:58:53;25.80;68.80
16287;DHT22;8251;53.568;10.018;2023-06-26T06:01:22;25.90;68.40
16287;DHT22;8251;53.568;10.018;2023-06-26T06:03:50;25.90;68.30
16287;DHT22;8251;53.568;10.018;2023-06-26T06:06:17;25.90;68.40
16287;DHT22;8251;53.568;10.018;2023-06-26T06:08:44;25.90;68.40
16287;DHT22;8251;53.568;10.018;2023-06-26T06:11:11;26.00;68.60
16287;DHT22;8251;53.568;10.018;2023-06-26T06:13:38;26.00;68.60
16287;DHT22;8251;53.568;10.018;2023-06-26T06:16:07;26.10;68.40
16287;DHT22;8251;53.568;10.018;2023-06-26T06:18:36;26.20;68.20
16287;DHT22;8251;53.568;10.018;2023-06-26T06:21:02;26.20;68.20
16287;DHT22;8251;53.568;10.018;2023-06-26T06:23:33;26.30;68.30
16287;DHT22;8251;53.568;10.018;2023-06-26T06:26:00;26.40;67.90
16287;DHT22;8251;53.568;10.018;2023-06-26T06:28:30;26.40;67.60
16287;DHT22;8251;53.568;10.018;2023-06-26T06:30:57;26.40;67.40
16287;DHT22;8251;53.568;10.018;2023-06-26T06:33:25;26.50;67.70
16287;DHT22;8251;53.568;10.018;2023-06-26T06:35:53;26.50;67.50
16287;DHT22;8251;53.568;10.018;2023-06-26T06:38:21;26.70;67.60
16287;DHT22;8251;53.568;10.018;2023-06-26T06:40:48;26.80;67.50
16287;DHT22;8251;53.568;10.018;2023-06-26T06:43:15;26.80;67.20
16287;DHT22;8251;53.568;10.018;2023-06-26T06:45:43;26.80;67.00
16287;DHT22;8251;53.568;10.018;2023-06-26T06:48:10;26.80;66.50
16287;DHT22;8251;53.568;10.018;2023-06-26T06:50:37;26.90;66.90
16287;DHT22;8251;53.568;10.018;2023-06-26T06:53:05;27.00;66.70
16287;DHT22;8251;53.568;10.018;2023-06-26T06:55:32;27.00;66.40
16287;DHT22;8251;53.568;10.018;2023-06-26T06:58:00;27.10;66.10
16287;DHT22;8251;53.568;10.018;2023-06-26T07:00:27;27.10;66.00
16287;DHT22;8251;53.568;10.018;2023-06-26T07:02:54;27.10;65.90
16287;DHT22;8251;53.568;10.018;2023-06-26T07:05:22;27.10;65.90
16287;DHT22;8251;53.568;10.018;2023-06-26T07:07:49;27.20;66.10
16287;DHT22;8251;53.568;10.018;2023-06-26T07:10:20;27.30;65.60
16287;DHT22;8251;53.568;10.018;2023-06-26T07:12:53;27.40;66.00
16287;DHT22;8251;53.568;10.018;2023-06-26T07:15:25;27.50;65.70
16287;DHT22;8251;53.568;10.018;2023-06-26T07:17:55;27.50;65.60
16287;DHT22;8251;53.568;10.018;2023-06-26T07:20:23;27.60;65.60
16287;DHT22;8251;53.568;10.018;2023-06-26T07:22:50;27.60;65.30
16287;DHT22;8251;53.568;10.018;2023-06-26T07:25:18;27.60;65.00
16287;DHT22;8251;53.568;10.018;2023-06-26T07:27:48;27.70;64.90
16287;DHT22;8251;53.568;10.018;2023-06-26T07:30:15;27.70;64.90
16287;DHT22;8251;53.568;10.018;2023-06-26T07:32:45;27.80;65.20
16287;DHT22;8251;53.568;10.018;2023-06-26T07:35:12;27.90;65.40
16287;DHT22;8251;53.568;10.018;2023-06-26T07:37:39;28.00;65.00
16287;DHT22;8251;53.568;10.018;2023-06-26T07:40:07;28.00;64.70
16287;DHT22;8251;53.568;10.018;2023-06-26T07:42:37;28.10;63.70
16287;DHT22;8251;53.568;10.018;2023-06-26T07:45:04;28.20;64.30
16287;DHT22;8251;53.568;10.018;2023-06-26T07:47:35;28.30;64.40
16287;DHT22;8251;53.568;10.018;2023-06-26T07:50:03;28.40;63.60
16287;DHT22;8251;53.568;10.018;2023-06-26T07:52:30;28.50;63.10
16287;DHT22;8251;53.568;10.018;2023-06-26T07:54:57;28.70;62.90
16287;DHT22;8251;53.568;10.018;2023-06-26T07:57:24;28.80;62.50
16287;DHT22;8251;53.568;10.018;2023-06-26T07:59:53;29.00;61.60
16287;DHT22;8251;53.568;10.018;2023-06-26T08:02:21;29.20;61.60
16287;DHT22;8251;53.568;10.018;2023-06-26T08:04:48;29.40;61.70
16287;DHT22;8251;53.568;10.018;2023-06-26T08:07:17;29.50;61.40
16287;DHT22;8251;53.568;10.018;2023-06-26T08:09:44;29.60;60.60
16287;DHT22;8251;53.568;10.018;2023-06-26T08:12:15;29.70;60.80
16287;DHT22;8251;53.568;10.018;2023-06-26T08:14:42;29.80;60.30
16287;DHT22;8251;53.568;10.018;2023-06-26T08:17:13;29.90;59.80
16287;DHT22;8251;53.568;10.018;2023-06-26T08:19:40;30.00;59.30
16287;DHT22;8251;53.568;10.018;2023-06-26T08:22:07;30.10;58.20
16287;DHT22;8251;53.568;10.018;2023-06-26T08:24:38;30.20;57.70
16287;DHT22;8251;53.568;10.018;2023-06-26T08:27:08;30.30;57.00
16287;DHT22;8251;53.568;10.018;2023-06-26T08:29:36;30.50;57.10
16287;DHT22;8251;53.568;10.018;2023-06-26T08:32:10;30.70;56.10
16287;DHT22;8251;53.568;10.018;2023-06-26T08:34:41;30.90;55.80
16287;DHT22;8251;53.568;10.018;2023-06-26T08:37:16;31.10;55.80
16287;DHT22;8251;53.568;10.018;2023-06-26T08:39:45;31.40;55.60
16287;DHT22;8251;53.568;10.018;2023-06-26T08:42:12;31.80;54.60
16287;DHT22;8251;53.568;10.018;2023-06-26T08:44:39;32.00;54.40
16287;DHT22;8251;53.568;10.018;2023-06-26T08:47:06;32.10;53.40
16287;DHT22;8251;53.568;10.018;2023-06-26T08:49:53;32.10;53.10
16287;DHT22;8251;53.568;10.018;2023-06-26T08:52:23;32.10;52.60
16287;DHT22;8251;53.568;10.018;2023-06-26T08:54:55;32.00;54.00
16287;DHT22;8251;53.568;10.018;2023-06-26T08:57:23;32.00;54.00
16287;DHT22;8251;53.568;10.018;2023-06-26T08:59:51;31.90;54.40
16287;DHT22;8251;53.568;10.018;2023-06-26T09:02:18;32.10;55.30
16287;DHT22;8251;53.568;10.018;2023-06-26T09:04:49;32.40;54.10
16287;DHT22;8251;53.568;10.018;2023-06-26T09:07:17;32.80;52.90
16287;DHT22;8251;53.568;10.018;2023-06-26T09:09:44;33.20;52.70
16287;DHT22;8251;53.568;10.018;2023-06-26T09:12:11;33.60;52.10
16287;DHT22;8251;53.568;10.018;2023-06-26T09:14:39;34.00;51.60
16287;DHT22;8251;53.568;10.018;2023-06-26T09:17:07;34.30;51.50
16287;DHT22;8251;53.568;10.018;2023-06-26T09:19:36;34.60;51.30
16287;DHT22;8251;53.568;10.018;2023-06-26T09:22:11;34.80;50.40
16287;DHT22;8251;53.568;10.018;2023-06-26T09:24:41;34.70;49.70
16287;DHT22;8251;53.568;10.018;2023-06-26T09:27:08;34.80;50.20
16287;DHT22;8251;53.568;10.018;2023-06-26T09:29:35;34.80;50.00
16287;DHT22;8251;53.568;10.018;2023-06-26T09:32:03;34.80;50.20
16287;DHT22;8251;53.568;10.018;2023-06-26T09:34:31;34.70;50.70
16287;DHT22;8251;53.568;10.018;2023-06-26T09:36:58;34.50;50.20
16287;DHT22;8251;53.568;10.018;2023-06-26T09:39:30;34.20;51.20
16287;DHT22;8251;53.568;10.018;2023-06-26T09:42:01;33.80;51.20
16287;DHT22;8251;53.568;10.018;2023-06-26T09:44:30;33.50;51.70
16287;DHT22;8251;53.568;10.018;2023-06-26T09:46:58;33.10;52.40
16287;DHT22;8251;53.568;10.018;2023-06-26T09:49:25;32.70;52.20
16287;DHT22;8251;53.568;10.018;2023-06-26T09:52:00;32.30;52.90
16287;DHT22;8251;53.568;10.018;2023-06-26T09:54:29;31.90;53.80
16287;DHT22;8251;53.568;10.018;2023-06-26T09:57:07;31.60;54.80
16287;DHT22;8251;53.568;10.018;2023-06-26T09:59:34;31.30;55.30
16287;DHT22;8251;53.568;10.018;2023-06-26T10:02:01;31.10;55.70
16287;DHT22;8251;53.568;10.018;2023-06-26T10:04:29;31.00;56.80
16287;DHT22;8251;53.568;10.018;2023-06-26T10:06:58;30.80;56.90
16287;DHT22;8251;53.568;10.018;2023-06-26T10:09:29;30.60;57.60
16287;DHT22;8251;53.568;10.018;2023-06-26T10:12:01;30.40;58.20
16287;DHT22;8251;53.568;10.018;2023-06-26T10:14:34;30.20;58.70
16287;DHT22;8251;53.568;10.018;2023-06-26T10:17:04;29.90;58.90
16287;DHT22;8251;53.568;10.018;2023-06-26T10:19:33;29.60;60.30
16287;DHT22;8251;53.568;10.018;2023-06-26T10:22:03;29.30;61.50
16287;DHT22;8251;53.568;10.018;2023-06-26T10:24:35;29.10;62.40
16287;DHT22;8251;53.568;10.018;2023-06-26T10:27:04;28.80;63.90
16287;DHT22;8251;53.568;10.018;2023-06-26T10:29:35;28.50;65.90
16287;DHT22;8251;53.568;10.018;2023-06-26T10:32:03;28.20;68.20
16287;DHT22;8251;53.568;10.018;2023-06-26T10:34:31;27.90;69.90
16287;DHT22;8251;53.568;10.018;2023-06-26T10:36:59;27.60;71.70
16287;DHT22;8251;53.568;10.018;2023-06-26T10:39:27;27.40;73.30
16287;DHT22;8251;53.568;10.018;2023-06-26T10:42:09;27.10;74.10
16287;DHT22;8251;53.568;10.018;2023-06-26T10:44:43;26.90;76.10
16287;DHT22;8251;53.568;10.018;2023-06-26T10:47:11;26.70;76.80
16287;DHT22;8251;53.568;10.018;2023-06-26T10:49:38;26.60;77.50
16287;DHT22;8251;53.568;10.018;2023-06-26T10:52:06;26.50;79.10
16287;DHT22;8251;53.568;10.018;2023-06-26T10:54:33;26.40;79.50
16287;DHT22;8251;53.568;10.018;2023-06-26T10:57:01;26.40;79.90
16287;DHT22;8251;53.568;10.018;2023-06-26T10:59:31;26.20;80.00
16287;DHT22;8251;53.568;10.018;2023-06-26T11:02:00;26.20;80.70
16287;DHT22;8251;53.568;10.018;2023-06-26T11:04:38;26.10;81.70
16287;DHT22;8251;53.568;10.018;2023-06-26T11:07:16;26.10;82.40
16287;DHT22;8251;53.568;10.018;2023-06-26T11:09:57;26.10;82.90
16287;DHT22;8251;53.568;10.018;2023-06-26T11:12:35;26.20;83.30
16287;DHT22;8251;53.568;10.018;2023-06-26T11:15:06;26.30;82.10
16287;DHT22;8251;53.568;10.018;2023-06-26T11:17:35;26.50;83.40
16287;DHT22;8251;53.568;10.018;2023-06-26T11:20:02;26.80;81.80
16287;DHT22;8251;53.568;10.018;2023-06-26T11:22:31;26.80;79.90
16287;DHT22;8251;53.568;10.018;2023-06-26T11:25:01;26.80;80.00
16287;DHT22;8251;53.568;10.018;2023-06-26T11:27:31;26.70;78.10
16287;DHT22;8251;53.568;10.018;2023-06-26T11:29:59;26.60;77.20
16287;DHT22;8251;53.568;10.018;2023-06-26T11:32:29;26.60;76.60
16287;DHT22;8251;53.568;10.018;2023-06-26T11:34:58;26.60;75.80
16287;DHT22;8251;53.568;10.018;2023-06-26T11:37:26;26.60;76.20
16287;DHT22;8251;53.568;10.018;2023-06-26T11:39:54;26.70;77.30
16287;DHT22;8251;53.568;10.018;2023-06-26T11:42:21;26.80;76.40
16287;DHT22;8251;53.568;10.018;2023-06-26T11:44:49;26.80;75.00
16287;DHT22;8251;53.568;10.018;2023-06-26T11:47:18;26.90;75.60
16287;DHT22;8251;53.568;10.018;2023-06-26T11:49:48;27.10;76.10
16287;DHT22;8251;53.568;10.018;2023-06-26T11:52:19;27.50;76.00
16287;DHT22;8251;53.568;10.018;2023-06-26T11:54:47;27.60;72.00
16287;DHT22;8251;53.568;10.018;2023-06-26T11:57:15;27.70;70.70
16287;DHT22;8251;53.568;10.018;2023-06-26T11:59:45;27.90;71.40
16287;DHT22;8251;53.568;10.018;2023-06-26T12:02:14;28.00;69.70
16287;DHT22;8251;53.568;10.018;2023-06-26T12:04:42;27.90;67.80
16287;DHT22;8251;53.568;10.018;2023-06-26T12:07:12;27.80;66.80
16287;DHT22;8251;53.568;10.018;2023-06-26T12:09:42;27.60;65.10
16287;DHT22;8251;53.568;10.018;2023-06-26T12:12:10;27.40;65.80
16287;DHT22;8251;53.568;10.018;2023-06-26T12:14:38;27.20;66.30
16287;DHT22;8251;53.568;10.018;2023-06-26T12:17:09;27.20;67.50
16287;DHT22;8251;53.568;10.018;2023-06-26T12:19:37;27.10;68.60
16287;DHT22;8251;53.568;10.018;2023-06-26T12:22:08;27.10;66.80
16287;DHT22;8251;53.568;10.018;2023-06-26T12:24:39;27.10;68.20
16287;DHT22;8251;53.568;10.018;2023-06-26T12:27:09;27.10;69.00
16287;DHT22;8251;53.568;10.018;2023-06-26T12:29:38;27.20;68.30
16287;DHT22;8251;53.568;10.018;2023-06-26T12:32:09;27.40;67.80
16287;DHT22;8251;53.568;10.018;2023-06-26T12:34:37;27.40;65.20
16287;DHT22;8251;53.568;10.018;2023-06-26T12:37:08;27.50;63.20
16287;DHT22;8251;53.568;10.018;2023-06-26T12:39:48;27.50;64.00
16287;DHT22;8251;53.568;10.018;2023-06-26T12:42:16;27.50;62.70
16287;DHT22;8251;53.568;10.018;2023-06-26T12:44:43;27.40;63.80
16287;DHT22;8251;53.568;10.018;2023-06-26T12:47:10;27.60;65.00
16287;DHT22;8251;53.568;10.018;2023-06-26T12:49:39;27.70;63.70
16287;DHT22;8251;53.568;10.018;2023-06-26T12:52:09;27.90;63.00
16287;DHT22;8251;53.568;10.018;2023-06-26T12:54:37;28.00;60.30
16287;DHT22;8251;53.568;10.018;2023-06-26T12:57:06;28.10;59.20
16287;DHT22;8251;53.568;10.018;2023-06-26T12:59:36;28.20;57.60
16287;DHT22;8251;53.568;10.018;2023-06-26T13:02:03;28.20;55.60
16287;DHT22;8251;53.568;10.018;2023-06-26T13:04:30;28.10;55.10
16287;DHT22;8251;53.568;10.018;2023-06-26T13:06:57;28.00;56.10
16287;DHT22;8251;53.568;10.018;2023-06-26T13:09:25;28.00;55.00
16287;DHT22;8251;53.568;10.018;2023-06-26T13:11:52;28.10;55.30
16287;DHT22;8251;53.568;10.018;2023-06-26T13:14:21;28.20;55.30
16287;DHT22;8251;53.568;10.018;2023-06-26T13:16:48;28.30;54.80
16287;DHT22;8251;53.568;10.018;2023-06-26T13:19:18;28.30;54.10
16287;DHT22;8251;53.568;10.018;2023-06-26T13:21:46;28.30;54.50
16287;DHT22;8251;53.568;10.018;2023-06-26T13:24:13;28.20;53.90
16287;DHT22;8251;53.568;10.018;2023-06-26T13:26:41;28.30;55.00
16287;DHT22;8251;53.568;10.018;2023-06-26T13:29:08;28.30;54.20
16287;DHT22;8251;53.568;10.018;2023-06-26T13:31:36;28.30;53.50
16287;DHT22;8251;53.568;10.018;2023-06-26T13:34:04;28.20;53.80
16287;DHT22;8251;53.568;10.018;2023-06-26T13:36:31;28.10;52.90
16287;DHT22;8251;53.568;10.018;2023-06-26T13:39:00;28.10;52.50
16287;DHT22;8251;53.568;10.018;2023-06-26T13:41:28;27.90;53.10
16287;DHT22;8251;53.568;10.018;2023-06-26T13:43:55;27.80;54.10
16287;DHT22;8251;53.568;10.018;2023-06-26T13:46:22;27.80;54.00
16287;DHT22;8251;53.568;10.018;2023-06-26T13:48:54;27.80;54.70
16287;DHT22;8251;53.568;10.018;2023-06-26T13:51:21;27.90;53.90
16287;DHT22;8251;53.568;10.018;2023-06-26T13:53:48;27.90;53.70
16287;DHT22;8251;53.568;10.018;2023-06-26T13:56:15;27.80;53.60
16287;DHT22;8251;53.568;10.018;2023-06-26T13:58:44;27.80;53.40
16287;DHT22;8251;53.568;10.018;2023-06-26T14:01:12;27.80;53.70
16287;DHT22;8251;53.568;10.018;2023-06-26T14:03:39;27.80;54.10
16287;DHT22;8251;53.568;10.018;2023-06-26T14:06:07;27.80;54.40
16287;DHT22;8251;53.568;10.018;2023-06-26T14:08:36;27.70;54.30
16287;DHT22;8251;53.568;10.018;2023-06-26T14:11:04;27.80;54.10
16287;DHT22;8251;53.568;10.018;2023-06-26T14:13:30;27.80;54.10
16287;DHT22;8251;53.568;10.018;2023-06-26T14:16:02;27.70;53.80
16287;DHT22;8251;53.568;10.018;2023-06-26T14:18:38;27.70;53.90
16287;DHT22;8251;53.568;10.018;2023-06-26T14:21:11;27.60;54.20
16287;DHT22;8251;53.568;10.018;2023-06-26T14:23:38;27.50;54.10
16287;DHT22;8251;53.568;10.018;2023-06-26T14:26:05;27.40;53.60
16287;DHT22;8251;53.568;10.018;2023-06-26T14:28:34;27.40;53.90
16287;DHT22;8251;53.568;10.018;2023-06-26T14:31:02;27.20;53.60
16287;DHT22;8251;53.568;10.018;2023-06-26T14:33:29;27.10;53.60
16287;DHT22;8251;53.568;10.018;2023-06-26T14:35:56;27.10;53.20
16287;DHT22;8251;53.568;10.018;2023-06-26T14:38:24;27.10;54.40
16287;DHT22;8251;53.568;10.018;2023-06-26T14:40:51;27.20;54.40
16287;DHT22;8251;53.568;10.018;2023-06-26T14:43:19;27.30;53.30
16287;DHT22;8251;53.568;10.018;2023-06-26T14:45:46;27.40;54.60
16287;DHT22;8251;53.568;10.018;2023-06-26T14:48:13;27.40;54.10
16287;DHT22;8251;53.568;10.018;2023-06-26T14:50:40;27.50;53.90
16287;DHT22;8251;53.568;10.018;2023-06-26T14:53:09;27.40;52.70
16287;DHT22;8251;53.568;10.018;2023-06-26T14:55:38;27.30;52.20
16287;DHT22;8251;53.568;10.018;2023-06-26T14:58:05;27.20;51.00
16287;DHT22;8251;53.568;10.018;2023-06-26T15:00:32;27.10;51.30
16287;DHT22;8251;53.568;10.018;2023-06-26T15:02:59;27.00;50.90
16287;DHT22;8251;53.568;10.018;2023-06-26T15:05:26;27.00;51.50
16287;DHT22;8251;53.568;10.018;2023-06-26T15:07:53;26.80;51.20
16287;DHT22;8251;53.568;10.018;2023-06-26T15:10:20;26.70;52.10
16287;DHT22;8251;53.568;10.018;2023-06-26T15:12:49;26.50;52.60
16287;DHT22;8251;53.568;10.018;2023-06-26T15:15:16;26.50;53.60
16287;DHT22;8251;53.568;10.018;2023-06-26T15:17:43;26.60;54.50
16287;DHT22;8251;53.568;10.018;2023-06-26T15:20:11;26.70;56.00
16287;DHT22;8251;53.568;10.018;2023-06-26T15:22:38;26.80;54.50
16287;DHT22;8251;53.568;10.018;2023-06-26T15:25:09;26.80;54.50
16287;DHT22;8251;53.568;10.018;2023-06-26T15:27:36;26.70;54.80
16287;DHT22;8251;53.568;10.018;2023-06-26T15:30:06;26.60;54.20
16287;DHT22;8251;53.568;10.018;2023-06-26T15:32:33;26.60;53.90
16287;DHT22;8251;53.568;10.018;2023-06-26T15:35:00;26.50;54.60
16287;DHT22;8251;53.568;10.018;2023-06-26T15:37:27;26.50;53.30
16287;DHT22;8251;53.568;10.018;2023-06-26T15:39:54;26.50;52.90